createdAt,value
2018-12-09T00:01:15.822Z,8.40
2018-12-09T00:03:58.370Z,8.50
2018-12-09T00:06:29.084Z,8.50
2018-12-09T00:09:02.436Z,8.70
2018-12-09T00:11:46.613Z,8.70
2018-12-09T00:14:28.211Z,8.60
2018-12-09T00:17:12.157Z,8.50
2018-12-09T00:19:57.136Z,8.50
2018-12-09T00:22:40.756Z,8.60
2018-12-09T00:27:47.741Z,8.80
2018-12-09T00:30:29.499Z,8.90
2018-12-09T00:33:12.403Z,8.80
2018-12-09T00:35:54.485Z,8.70
2018-12-09T00:38:25.721Z,8.50
2018-12-09T00:41:07.532Z,8.40
2018-12-09T00:43:40.583Z,8.40
2018-12-09T00:46:18.419Z,8.50
2018-12-09T00:49:01.155Z,8.50
2018-12-09T00:52:03.261Z,8.60
2018-12-09T00:54:45.446Z,8.50
2018-12-09T00:57:27.236Z,8.50
2018-12-09T01:00:15.060Z,8.30
2018-12-09T01:02:50.762Z,8.30
2018-12-09T01:05:32.228Z,8.10
2018-12-09T01:08:05.287Z,8.10
2018-12-09T01:10:37.899Z,8.00
2018-12-09T01:13:19.386Z,8.00
2018-12-09T01:16:01.802Z,8.10
2018-12-09T01:18:36.272Z,8.10
2018-12-09T01:21:22.899Z,8.20
2018-12-09T01:24:04.516Z,8.20
2018-12-09T01:26:54.341Z,8.10
2018-12-09T01:29:32.319Z,8.20
2018-12-09T01:32:21.710Z,8.40
2018-12-09T01:34:53.627Z,8.30
2018-12-09T01:37:37.199Z,8.40
2018-12-09T01:40:20.742Z,8.40
2018-12-09T01:43:03.179Z,8.40
2018-12-09T01:45:44.888Z,8.50
2018-12-09T01:48:21.252Z,8.70
2018-12-09T01:51:03.895Z,8.80
2018-12-09T01:54:18.699Z,8.90
2018-12-09T01:57:00.387Z,9.00
2018-12-09T01:59:33.504Z,9.00
2018-12-09T02:02:06.661Z,8.90
2018-12-09T02:04:49.824Z,8.80
2018-12-09T02:07:20.677Z,8.70
2018-12-09T02:10:02.735Z,8.50
2018-12-09T02:12:44.777Z,8.30
2018-12-09T02:15:26.742Z,8.30
2018-12-09T02:17:59.928Z,8.30
2018-12-09T02:20:42.064Z,8.20
2018-12-09T02:23:23.824Z,8.20
2018-12-09T02:26:05.837Z,8.10
2018-12-09T02:28:39.171Z,8.20
2018-12-09T02:31:10.269Z,8.30
2018-12-09T02:33:52.069Z,8.40
2018-12-09T02:36:23.277Z,8.30
2018-12-09T02:38:55.902Z,8.40
2018-12-09T02:41:37.840Z,8.20
2018-12-09T02:44:21.951Z,8.20
2018-12-09T02:47:03.851Z,8.20
2018-12-09T02:49:45.916Z,8.20
2018-12-09T02:52:17.468Z,8.20
2018-12-09T02:54:59.087Z,8.10
2018-12-09T02:57:33.088Z,8.10
2018-12-09T03:00:15.075Z,8.20
2018-12-09T03:02:45.610Z,8.20
2018-12-09T03:05:27.569Z,8.10
2018-12-09T03:08:00.945Z,8.10
2018-12-09T03:10:48.885Z,8.00
2018-12-09T03:13:30.352Z,8.10
2018-12-09T03:16:12.180Z,8.10
2018-12-09T03:18:45.611Z,8.10
2018-12-09T03:21:27.803Z,8.10
2018-12-09T03:24:09.969Z,8.00
2018-12-09T03:26:41.113Z,7.90
2018-12-09T03:29:14.328Z,7.80
2018-12-09T03:31:56.248Z,7.80
2018-12-09T03:34:32.041Z,7.90
2018-12-09T03:37:13.388Z,7.80
2018-12-09T03:39:48.993Z,7.90
2018-12-09T03:42:30.519Z,8.00
2018-12-09T03:45:14.418Z,8.10
2018-12-09T03:47:47.636Z,8.00
2018-12-09T03:50:29.443Z,8.40
2018-12-09T03:53:11.144Z,8.60
2018-12-09T03:55:46.932Z,8.60
2018-12-09T03:58:19.462Z,8.70
2018-12-09T04:01:02.367Z,8.60
2018-12-09T04:03:44.420Z,8.70
2018-12-09T04:06:26.295Z,8.80
2018-12-09T04:08:59.485Z,8.80
2018-12-09T04:11:41.531Z,8.80
2018-12-09T04:17:23.060Z,8.80
2018-12-09T04:20:07.105Z,8.70
2018-12-09T04:22:48.905Z,8.70
2018-12-09T04:25:24.523Z,8.60
2018-12-09T04:28:00.007Z,8.70
2018-12-09T04:30:33.542Z,8.70
2018-12-09T04:33:14.603Z,8.80
2018-12-09T04:35:56.459Z,8.90
2018-12-09T04:38:30.735Z,8.80
2018-12-09T04:41:12.509Z,8.60
2018-12-09T04:43:54.491Z,8.60
2018-12-09T04:46:36.159Z,8.40
2018-12-09T04:49:09.383Z,8.40
2018-12-09T04:51:53.075Z,8.10
2018-12-09T04:54:34.354Z,7.90
2018-12-09T04:57:15.496Z,7.80
2018-12-09T04:59:49.795Z,7.80
2018-12-09T05:02:30.848Z,7.70
2018-12-09T05:05:12.132Z,7.70
2018-12-09T05:07:47.477Z,7.60
2018-12-09T05:10:33.744Z,7.60
2018-12-09T05:13:15.609Z,7.50
2018-12-09T05:15:57.614Z,7.50
2018-12-09T05:18:30.702Z,7.60
2018-12-09T05:21:12.504Z,7.60
2018-12-09T05:23:48.121Z,7.60
2018-12-09T05:26:23.057Z,7.60
2018-12-09T05:28:55.560Z,7.60
2018-12-09T05:31:37.772Z,7.70
2018-12-09T05:34:19.456Z,8.00
2018-12-09T05:36:52.540Z,8.00
2018-12-09T05:39:28.081Z,8.10
2018-12-09T05:42:09.567Z,8.20
2018-12-09T05:44:51.620Z,8.20
2018-12-09T05:47:24.755Z,8.30
2018-12-09T05:49:56.015Z,8.10
2018-12-09T05:52:37.920Z,8.10
2018-12-09T05:55:19.951Z,8.00
2018-12-09T05:57:53.179Z,8.00
2018-12-09T06:00:34.343Z,7.70
2018-12-09T06:03:15.642Z,7.40
2018-12-09T06:05:54.709Z,7.40
2018-12-09T06:08:28.099Z,7.30
2018-12-09T06:11:14.684Z,7.10
2018-12-09T06:13:56.467Z,7.10
2018-12-09T06:16:38.461Z,7.00
2018-12-09T06:19:11.611Z,6.90
2018-12-09T06:21:44.054Z,6.90
2018-12-09T06:24:26.056Z,7.30
2018-12-09T06:27:10.122Z,7.50
2018-12-09T06:29:40.776Z,7.60
2018-12-09T06:32:22.672Z,7.50
2018-12-09T06:35:04.052Z,7.40
2018-12-09T06:37:37.171Z,7.40
2018-12-09T06:40:19.099Z,7.30
2018-12-09T06:43:00.869Z,7.20
2018-12-09T06:45:42.826Z,7.20
2018-12-09T06:48:16.003Z,7.30
2018-12-09T06:50:57.964Z,7.20
2018-12-09T06:53:39.773Z,7.20
2018-12-09T06:56:20.875Z,7.10
2018-12-09T06:58:55.195Z,7.00
2018-12-09T07:01:37.121Z,6.80
2018-12-09T07:04:12.600Z,6.80
2018-12-09T07:06:54.384Z,6.70
2018-12-09T07:09:28.339Z,6.70
2018-12-09T07:12:10.220Z,6.60
2018-12-09T07:14:45.940Z,6.60
2018-12-09T07:17:27.539Z,6.60
2018-12-09T07:20:09.519Z,6.60
2018-12-09T07:22:51.283Z,6.60
2018-12-09T07:25:33.120Z,6.50
2018-12-09T07:28:06.407Z,6.40
2018-12-09T07:30:48.290Z,6.40
2018-12-09T07:33:30.315Z,6.30
2018-12-09T07:36:12.279Z,6.30
2018-12-09T07:38:45.935Z,6.30
2018-12-09T07:41:33.505Z,6.30
2018-12-09T07:44:15.542Z,6.30
2018-12-09T07:46:56.843Z,6.30
2018-12-09T07:49:32.479Z,6.30
2018-12-09T07:52:14.087Z,6.30
2018-12-09T07:54:57.067Z,6.40
2018-12-09T07:57:30.112Z,6.40
2018-12-09T08:00:12.023Z,6.40
2018-12-09T08:02:43.155Z,6.50
2018-12-09T08:05:14.399Z,6.60
2018-12-09T08:07:47.656Z,6.50
2018-12-09T08:10:21.074Z,6.50
2018-12-09T08:13:02.571Z,6.50
2018-12-09T08:15:45.435Z,6.60
2018-12-09T08:18:18.687Z,6.50
2018-12-09T08:21:00.509Z,6.60
2018-12-09T08:23:31.717Z,6.50
2018-12-09T08:26:14.792Z,6.60
2018-12-09T08:28:48.106Z,6.60
2018-12-09T08:31:29.791Z,6.70
2018-12-09T08:34:11.567Z,7.00
2018-12-09T08:42:26.044Z,7.40
2018-12-09T08:45:01.988Z,7.50
2018-12-09T08:47:34.350Z,7.60
2018-12-09T08:50:16.233Z,7.60
2018-12-09T08:52:58.096Z,7.70
2018-12-09T08:55:40.094Z,7.60
2018-12-09T08:58:13.344Z,7.60
2018-12-09T09:00:55.217Z,7.70
2018-12-09T09:03:36.336Z,7.70
2018-12-09T09:06:18.352Z,7.70
2018-12-09T09:08:49.375Z,7.90
2018-12-09T09:11:30.488Z,8.10
2018-12-09T09:14:06.023Z,8.20
2018-12-09T09:16:37.979Z,8.30
2018-12-09T09:19:10.544Z,8.50
2018-12-09T09:21:43.662Z,8.70
2018-12-09T09:24:25.458Z,8.70
2018-12-09T09:27:07.483Z,8.90
2018-12-09T09:29:40.474Z,8.90
2018-12-09T09:32:13.580Z,9.10
2018-12-09T09:34:55.480Z,9.10
2018-12-09T09:39:59.903Z,8.90
2018-12-09T09:42:41.296Z,8.90
2018-12-09T09:45:23.079Z,9.00
2018-12-09T09:47:55.470Z,8.90
2018-12-09T09:50:37.365Z,8.90
2018-12-09T09:53:19.092Z,9.00
2018-12-09T09:55:57.352Z,9.00
2018-12-09T09:58:30.570Z,8.70
2018-12-09T10:01:12.609Z,8.40
2018-12-09T10:03:54.440Z,8.20
2018-12-09T10:06:41.272Z,8.00
2018-12-09T10:09:14.480Z,8.00
2018-12-09T10:11:56.479Z,8.10
2018-12-09T10:14:31.804Z,8.20
2018-12-09T10:17:13.224Z,8.30
2018-12-09T10:19:55.143Z,8.40
2018-12-09T10:22:37.138Z,8.60
2018-12-09T10:25:09.523Z,8.70
2018-12-09T10:27:42.390Z,8.90
2018-12-09T10:30:13.549Z,9.00
2018-12-09T10:33:00.622Z,9.10
2018-12-09T10:35:42.528Z,8.90
2018-12-09T10:41:03.702Z,9.20
2018-12-09T10:43:38.635Z,9.10
2018-12-09T10:46:21.781Z,8.90
2018-12-09T10:48:54.488Z,8.60
2018-12-09T10:51:36.484Z,8.60
2018-12-09T10:54:18.462Z,8.80
2018-12-09T10:57:06.395Z,8.90
2018-12-09T10:59:42.179Z,8.70
2018-12-09T11:02:23.656Z,8.40
2018-12-09T11:05:09.616Z,8.30
2018-12-09T11:07:42.610Z,8.40
2018-12-09T11:10:30.536Z,8.70
2018-12-09T11:13:12.469Z,8.80
2018-12-09T11:15:54.275Z,8.90
2018-12-09T11:18:27.737Z,8.90
2018-12-09T11:21:14.553Z,9.00
2018-12-09T11:23:57.085Z,9.20
2018-12-09T11:26:28.186Z,9.60
2018-12-09T11:29:01.539Z,9.60
2018-12-09T11:31:43.058Z,9.40
2018-12-09T11:34:25.256Z,9.30
2018-12-09T11:37:06.915Z,9.10
2018-12-09T11:39:41.408Z,9.00
2018-12-09T11:42:15.131Z,8.90
2018-12-09T11:44:57.197Z,8.80
2018-12-09T11:47:36.893Z,8.70
2018-12-09T11:50:12.563Z,8.60
2018-12-09T11:52:47.807Z,8.60
2018-12-09T11:55:22.861Z,8.50
2018-12-09T11:57:55.417Z,8.50
2018-12-09T12:00:30.592Z,8.40
2018-12-09T12:03:12.499Z,8.50
2018-12-09T12:05:55.609Z,8.60
2018-12-09T12:08:27.995Z,8.70
2018-12-09T12:11:02.531Z,8.70
2018-12-09T12:13:44.081Z,8.60
2018-12-09T12:16:27.211Z,8.60
2018-12-09T12:19:02.600Z,8.60
2018-12-09T12:21:38.979Z,8.50
2018-12-09T12:24:16.273Z,8.40
2018-12-09T12:26:50.379Z,8.20
2018-12-09T12:29:23.571Z,8.10
2018-12-09T12:32:05.513Z,8.00
2018-12-09T12:34:36.690Z,7.90
2018-12-09T12:37:18.604Z,7.80
2018-12-09T12:40:00.636Z,7.80
2018-12-09T12:42:42.675Z,7.70
2018-12-09T12:45:24.318Z,7.50
2018-12-09T12:47:57.681Z,7.40
2018-12-09T12:50:30.886Z,7.40
2018-12-09T12:53:12.496Z,7.30
2018-12-09T12:55:54.271Z,7.30
2018-12-09T12:58:29.704Z,7.30
2018-12-09T13:01:11.167Z,7.30
2018-12-09T13:03:53.087Z,7.30
2018-12-09T13:06:35.146Z,7.30
2018-12-09T13:09:09.383Z,7.20
2018-12-09T13:11:45.720Z,7.10
2018-12-09T13:14:16.791Z,7.00
2018-12-09T13:16:58.368Z,7.00
2018-12-09T13:19:31.343Z,7.00
2018-12-09T13:22:05.751Z,7.00
2018-12-09T13:24:55.815Z,7.00
2018-12-09T13:27:37.146Z,7.10
2018-12-09T13:30:18.368Z,7.10
2018-12-09T13:33:00.163Z,7.10
2018-12-09T13:35:42.024Z,7.10
2018-12-09T13:38:15.450Z,7.00
2018-12-09T13:41:13.847Z,6.90
2018-12-09T13:43:55.406Z,7.00
2018-12-09T13:46:36.923Z,7.00
2018-12-09T13:49:14.295Z,7.00
2018-12-09T13:51:45.688Z,7.10
2018-12-09T13:54:27.669Z,7.10
2018-12-09T13:56:58.724Z,7.10
2018-12-09T13:59:36.219Z,7.10
2018-12-09T14:02:17.762Z,7.10
2018-12-09T14:04:48.877Z,7.10
2018-12-09T14:07:19.333Z,7.10
2018-12-09T14:10:01.165Z,7.10
2018-12-09T14:12:36.820Z,7.10
2018-12-09T14:15:18.140Z,7.00
2018-12-09T14:18:23.595Z,7.00
2018-12-09T14:21:05.437Z,7.10
2018-12-09T14:23:47.624Z,7.10
2018-12-09T14:26:29.508Z,7.00
2018-12-09T14:29:02.989Z,7.10
2018-12-09T14:31:49.129Z,7.10
2018-12-09T14:34:30.580Z,7.00
2018-12-09T14:37:12.749Z,7.00
2018-12-09T14:39:48.172Z,7.00
2018-12-09T14:42:29.361Z,6.90
2018-12-09T14:45:00.476Z,7.00
2018-12-09T14:47:34.784Z,7.00
2018-12-09T14:50:08.589Z,6.90
2018-12-09T14:52:41.062Z,6.80
2018-12-09T14:55:12.345Z,6.80
2018-12-09T14:57:45.729Z,6.80
2018-12-09T15:00:31.404Z,6.80
2018-12-09T15:03:03.665Z,6.70
2018-12-09T15:05:45.539Z,6.60
2018-12-09T15:08:18.813Z,6.50
2018-12-09T15:10:54.250Z,6.50
2018-12-09T15:13:35.477Z,6.50
2018-12-09T15:16:16.156Z,6.50
2018-12-09T15:18:48.696Z,6.50
2018-12-09T15:21:34.799Z,6.60
2018-12-09T15:24:15.851Z,6.60
2018-12-09T15:27:12.190Z,6.40
2018-12-09T15:29:42.769Z,6.40
2018-12-09T15:32:24.733Z,6.40
2018-12-09T15:35:11.748Z,6.40
2018-12-09T15:37:44.911Z,6.40
2018-12-09T15:40:26.724Z,6.40
2018-12-09T15:43:09.651Z,6.40
2018-12-09T15:45:50.754Z,6.40
2018-12-09T15:48:23.827Z,6.40
2018-12-09T15:51:09.909Z,6.30
2018-12-09T15:53:57.992Z,6.30
2018-12-09T15:56:39.637Z,6.30
2018-12-09T15:59:32.213Z,6.40
2018-12-09T16:02:12.700Z,6.30
2018-12-09T16:05:00.777Z,6.30
2018-12-09T16:07:33.931Z,6.20
2018-12-09T16:10:16.862Z,6.20
2018-12-09T16:12:59.047Z,6.10
2018-12-09T16:15:41.001Z,6.10
2018-12-09T16:18:13.902Z,6.10
2018-12-09T16:20:55.924Z,6.10
2018-12-09T16:23:37.599Z,6.10
2018-12-09T16:26:19.504Z,6.10
2018-12-09T16:28:55.266Z,6.20
2018-12-09T16:31:36.835Z,6.20
2018-12-09T16:34:18.759Z,6.20
2018-12-09T16:36:49.838Z,6.20
2018-12-09T16:39:22.912Z,6.20
2018-12-09T16:42:05.173Z,6.20
2018-12-09T16:44:51.925Z,6.30
2018-12-09T16:47:33.263Z,6.30
2018-12-09T16:50:17.140Z,6.30
2018-12-09T16:52:58.255Z,6.20
2018-12-09T16:55:44.312Z,6.30
2018-12-09T16:58:17.269Z,6.40
2018-12-09T17:01:00.323Z,6.40
2018-12-09T17:03:42.231Z,6.40
2018-12-09T17:06:23.772Z,6.50
2018-12-09T17:08:57.045Z,6.50
2018-12-09T17:11:36.836Z,6.50
2018-12-09T17:14:07.623Z,6.60
2018-12-09T17:16:45.888Z,6.60
2018-12-09T17:19:21.169Z,6.60
2018-12-09T17:22:03.205Z,6.60
2018-12-09T17:24:50.175Z,6.60
2018-12-09T17:27:36.058Z,6.60
2018-12-09T17:30:25.314Z,6.60
2018-12-09T17:33:06.839Z,6.70
2018-12-09T17:35:48.809Z,6.60
2018-12-09T17:38:24.261Z,6.70
2018-12-09T17:41:05.498Z,6.70
2018-12-09T17:43:47.412Z,6.70
2018-12-09T17:46:29.396Z,6.60
2018-12-09T17:49:00.503Z,6.70
2018-12-09T17:51:33.816Z,6.70
2018-12-09T17:54:15.519Z,6.70
2018-12-09T17:56:59.458Z,6.70
2018-12-09T17:59:35.633Z,6.70
2018-12-09T18:02:17.825Z,6.70
2018-12-09T18:04:59.773Z,6.70
2018-12-09T18:07:33.823Z,6.60
2018-12-09T18:10:23.190Z,6.80
2018-12-09T18:13:04.652Z,6.80
2018-12-09T18:15:50.504Z,6.80
2018-12-09T18:18:23.605Z,6.80
2018-12-09T18:21:07.383Z,6.80
2018-12-09T18:23:49.277Z,6.80
2018-12-09T18:26:31.237Z,6.80
2018-12-09T18:29:05.781Z,6.90
2018-12-09T18:31:47.364Z,6.90
2018-12-09T18:34:22.800Z,6.90
2018-12-09T18:36:59.163Z,6.90
2018-12-09T18:39:38.939Z,6.90
2018-12-09T18:42:21.613Z,6.90
2018-12-09T18:45:05.336Z,6.90
2018-12-09T18:52:54.590Z,6.90
2018-12-09T18:55:36.520Z,6.90
2018-12-09T18:58:09.705Z,7.00
2018-12-09T19:00:51.706Z,7.00
2018-12-09T19:03:33.439Z,7.00
2018-12-09T19:06:06.577Z,7.00
2018-12-09T19:08:40.351Z,7.00
2018-12-09T19:11:17.961Z,7.00
2018-12-09T19:13:59.715Z,7.00
2018-12-09T19:16:48.544Z,7.00
2018-12-09T19:19:21.115Z,7.00
2018-12-09T19:22:03.232Z,7.00
2018-12-09T19:24:59.864Z,7.00
2018-12-09T19:27:32.446Z,7.00
2018-12-09T19:30:14.288Z,7.00
2018-12-09T19:32:55.747Z,7.10
2018-12-09T19:35:37.623Z,7.10
2018-12-09T19:38:10.938Z,7.10
2018-12-09T19:40:53.254Z,7.10
2018-12-09T19:43:35.116Z,7.20
2018-12-09T19:46:06.598Z,7.20
2018-12-09T19:48:40.404Z,7.20
2018-12-09T19:51:23.304Z,7.20
2018-12-09T19:54:01.426Z,7.30
2018-12-09T19:56:43.243Z,7.30
2018-12-09T19:59:17.995Z,7.20
2018-12-09T20:01:59.317Z,7.10
2018-12-09T20:04:36.008Z,7.10
2018-12-09T20:07:21.423Z,7.10
2018-12-09T20:09:56.785Z,7.10
2018-12-09T20:12:44.749Z,7.10
2018-12-09T20:15:27.248Z,7.20
2018-12-09T20:18:02.030Z,7.20
2018-12-09T20:20:43.279Z,7.20
2018-12-09T20:23:17.746Z,7.30
2018-12-09T20:26:03.460Z,7.20
2018-12-09T20:28:37.608Z,7.20
2018-12-09T20:31:23.468Z,7.30
2018-12-09T20:33:55.052Z,7.30
2018-12-09T20:36:31.173Z,7.20
2018-12-09T20:39:06.283Z,7.20
2018-12-09T20:41:52.946Z,7.20
2018-12-09T20:44:35.144Z,7.00
2018-12-09T20:47:17.896Z,6.90
2018-12-09T20:50:04.954Z,6.80
2018-12-09T20:52:48.141Z,6.80
2018-12-09T20:55:31.036Z,6.90
2018-12-09T20:58:04.858Z,6.90
2018-12-09T21:00:45.037Z,6.90
2018-12-09T21:03:18.024Z,6.90
2018-12-09T21:05:59.816Z,6.90
2018-12-09T21:08:33.246Z,6.80
2018-12-09T21:11:20.862Z,6.90
2018-12-09T21:14:02.770Z,6.80
2018-12-09T21:16:48.613Z,6.90
2018-12-09T21:19:25.147Z,7.00
2018-12-09T21:22:00.792Z,7.00
2018-12-09T21:24:42.479Z,7.10
2018-12-09T21:27:17.684Z,7.00
2018-12-09T21:29:59.731Z,7.00
2018-12-09T21:32:47.160Z,6.90
2018-12-09T21:38:20.569Z,6.80
2018-12-09T21:41:02.425Z,6.70
2018-12-09T21:43:46.281Z,6.70
2018-12-09T21:46:29.063Z,6.70
2018-12-09T21:49:01.432Z,6.60
2018-12-09T21:51:32.752Z,6.50
2018-12-09T21:59:10.698Z,6.50
2018-12-09T22:01:53.388Z,6.50
2018-12-09T22:04:24.816Z,6.40
2018-12-09T22:07:06.289Z,6.40
2018-12-09T22:09:39.588Z,6.40
2018-12-09T22:12:27.592Z,6.40
2018-12-09T22:15:09.572Z,6.40
2018-12-09T22:17:51.243Z,6.30
2018-12-09T22:20:23.816Z,6.20
2018-12-09T22:22:55.044Z,6.30
2018-12-09T22:25:30.209Z,6.20
2018-12-09T22:28:05.898Z,6.20
2018-12-09T22:30:41.636Z,6.10
2018-12-09T22:33:32.846Z,6.00
2018-12-09T22:39:08.223Z,5.80
2018-12-09T22:42:02.420Z,5.60
2018-12-09T22:44:47.542Z,5.50
2018-12-09T22:47:20.814Z,5.40
2018-12-09T22:50:02.647Z,5.40
2018-12-09T22:52:44.750Z,5.30
2018-12-09T22:55:27.391Z,5.30
2018-12-09T22:58:00.553Z,5.40
2018-12-09T23:00:33.931Z,5.50
2018-12-09T23:03:20.595Z,5.60
2018-12-09T23:06:02.407Z,5.70
2018-12-09T23:08:37.322Z,5.80
2018-12-09T23:11:23.893Z,5.80
2018-12-09T23:14:05.981Z,6.00
2018-12-09T23:16:47.870Z,5.90
2018-12-09T23:19:20.807Z,5.90
2018-12-09T23:22:02.752Z,5.80
2018-12-09T23:24:44.837Z,5.80
2018-12-09T23:27:16.492Z,5.80
2018-12-09T23:29:57.906Z,5.80
2018-12-09T23:32:39.436Z,5.70
2018-12-09T23:35:25.679Z,5.70
2018-12-09T23:37:58.664Z,5.60
2018-12-09T23:40:46.467Z,5.60
2018-12-09T23:43:29.572Z,5.60
2018-12-09T23:46:12.483Z,5.50
2018-12-09T23:48:47.723Z,5.40
2018-12-09T23:51:33.390Z,5.30
2018-12-09T23:54:15.140Z,5.20
2018-12-09T23:56:57.485Z,5.10
2018-12-09T23:59:30.109Z,5.10
